createdAt,value
2022-09-30T00:01:14.994Z,21.85
2022-09-30T00:03:41.563Z,15.27
2022-09-30T00:06:09.009Z,17.88
2022-09-30T00:08:37.155Z,19.80
2022-09-30T00:11:13.607Z,18.38
2022-09-30T00:13:40.580Z,14.38
2022-09-30T00:16:10.375Z,18.85
2022-09-30T00:18:38.144Z,14.27
2022-09-30T00:21:08.314Z,13.80
2022-09-30T00:23:37.995Z,18.20
2022-09-30T00:26:07.884Z,17.52
2022-09-30T00:28:34.743Z,18.83
2022-09-30T00:31:04.453Z,17.27
2022-09-30T00:33:31.560Z,21.27
2022-09-30T00:35:58.096Z,15.13
2022-09-30T00:38:24.817Z,16.02
2022-09-30T00:40:51.720Z,14.13
2022-09-30T00:43:38.875Z,15.18
2022-09-30T00:46:06.337Z,14.60
2022-09-30T00:48:39.728Z,12.80
2022-09-30T00:51:08.051Z,18.33
2022-09-30T00:54:00.414Z,19.10
2022-09-30T00:59:02.252Z,18.27
2022-09-30T01:01:28.823Z,14.07
2022-09-30T01:04:03.468Z,23.80
2022-09-30T01:06:30.218Z,14.73
2022-09-30T01:08:58.653Z,16.55
2022-09-30T01:11:28.272Z,13.45
2022-09-30T01:13:58.970Z,16.85
2022-09-30T01:16:46.901Z,17.90
2022-09-30T01:19:36.637Z,16.05
2022-09-30T01:22:19.273Z,15.65
2022-09-30T01:25:17.838Z,22.40
2022-09-30T01:27:50.244Z,15.32
2022-09-30T01:30:26.583Z,16.77
2022-09-30T01:33:24.130Z,21.48
2022-09-30T01:36:25.975Z,11.77
2022-09-30T01:39:13.956Z,11.73
2022-09-30T01:42:04.483Z,17.50
2022-09-30T01:44:45.944Z,14.40
2022-09-30T01:47:29.515Z,16.90
2022-09-30T01:50:10.181Z,36.85
2022-09-30T01:52:44.808Z,31.67
2022-09-30T01:55:25.535Z,173.23
2022-09-30T01:58:14.434Z,154.40
2022-09-30T02:00:44.533Z,134.07
2022-09-30T02:03:27.794Z,124.18
2022-09-30T02:06:04.244Z,146.90
2022-09-30T02:08:51.254Z,80.30
2022-09-30T02:11:25.862Z,188.07
2022-09-30T02:13:55.370Z,93.63
2022-09-30T02:16:49.536Z,65.25
2022-09-30T02:19:23.281Z,28.42
2022-09-30T02:22:00.460Z,45.97
2022-09-30T02:24:32.159Z,35.08
2022-09-30T02:27:01.940Z,53.53
2022-09-30T02:29:34.883Z,73.68
2022-09-30T02:32:07.904Z,131.80
2022-09-30T02:34:43.443Z,150.07
2022-09-30T02:37:32.420Z,367.55
2022-09-30T02:40:35.876Z,195.52
2022-09-30T02:43:04.744Z,184.20
2022-09-30T02:45:43.128Z,245.57
2022-09-30T02:48:35.826Z,265.38
2022-09-30T02:51:10.316Z,214.55
2022-09-30T02:53:46.178Z,190.15
2022-09-30T02:56:24.261Z,194.73
2022-09-30T02:58:52.912Z,273.45
2022-09-30T03:01:20.193Z,198.43
2022-09-30T03:04:02.641Z,134.70
2022-09-30T03:06:29.459Z,89.32
2022-09-30T03:08:56.179Z,79.28
2022-09-30T03:11:25.109Z,78.35
2022-09-30T03:14:29.128Z,97.57
2022-09-30T03:17:20.453Z,56.75
2022-09-30T03:19:56.037Z,58.90
2022-09-30T03:22:25.364Z,139.27
2022-09-30T03:25:05.859Z,73.53
2022-09-30T03:27:37.367Z,119.82
2022-09-30T03:30:08.107Z,74.20
2022-09-30T03:33:04.462Z,95.68
2022-09-30T03:36:01.997Z,49.40
2022-09-30T03:38:39.941Z,67.80
2022-09-30T03:41:18.963Z,119.15
2022-09-30T03:43:45.432Z,121.38
2022-09-30T03:46:21.482Z,25.90
2022-09-30T03:48:51.691Z,75.75
2022-09-30T03:51:18.546Z,21.55
2022-09-30T03:53:46.676Z,15.65
2022-09-30T03:56:13.993Z,19.55
2022-09-30T03:58:44.337Z,39.58
2022-09-30T04:01:21.594Z,365.33
2022-09-30T04:03:52.993Z,353.48
2022-09-30T04:06:22.575Z,209.68
2022-09-30T04:08:50.354Z,528.67
2022-09-30T04:11:17.923Z,527.25
2022-09-30T04:13:44.461Z,329.00
2022-09-30T04:16:11.067Z,447.30
2022-09-30T04:18:39.104Z,882.38
2022-09-30T04:21:10.655Z,375.17
2022-09-30T04:23:38.733Z,459.75
2022-09-30T04:26:12.680Z,648.95
2022-09-30T04:28:40.092Z,909.05
2022-09-30T04:31:07.492Z,529.67
2022-09-30T04:33:34.379Z,355.88
2022-09-30T04:36:01.675Z,122.55
2022-09-30T04:38:29.179Z,250.70
2022-09-30T04:40:56.105Z,186.13
2022-09-30T04:43:23.614Z,74.45
2022-09-30T04:45:52.645Z,121.68
2022-09-30T04:48:19.706Z,282.50
2022-09-30T04:50:46.230Z,236.52
2022-09-30T04:53:14.826Z,212.77
2022-09-30T04:55:42.691Z,211.10
2022-09-30T04:58:09.459Z,161.13
2022-09-30T05:00:36.730Z,195.57
2022-09-30T05:03:03.634Z,204.38
2022-09-30T05:05:30.571Z,59.53
2022-09-30T05:08:01.694Z,42.40
2022-09-30T05:10:28.326Z,40.33
2022-09-30T05:12:55.067Z,40.60
2022-09-30T05:15:21.558Z,110.65
2022-09-30T05:17:51.601Z,93.28
2022-09-30T05:20:21.086Z,55.33
2022-09-30T05:22:48.324Z,20.35
2022-09-30T05:25:15.233Z,156.13
2022-09-30T05:27:41.781Z,151.05
2022-09-30T05:30:09.216Z,49.97
2022-09-30T05:32:35.784Z,93.13
2022-09-30T05:35:03.585Z,213.73
2022-09-30T05:37:30.441Z,103.50
2022-09-30T05:39:57.314Z,254.23
2022-09-30T05:42:23.876Z,195.85
2022-09-30T05:44:50.415Z,106.28
2022-09-30T05:47:17.324Z,71.10
2022-09-30T05:49:44.799Z,99.47
2022-09-30T05:52:13.497Z,105.85
2022-09-30T05:54:40.302Z,102.70
2022-09-30T05:57:08.030Z,239.65
2022-09-30T05:59:34.588Z,171.70
2022-09-30T06:02:01.543Z,81.60
2022-09-30T06:04:28.179Z,103.65
2022-09-30T06:06:54.696Z,87.35
2022-09-30T06:09:21.325Z,130.63
2022-09-30T06:11:48.056Z,79.90
2022-09-30T06:14:14.653Z,62.75
2022-09-30T06:16:41.268Z,109.25
2022-09-30T06:19:08.105Z,107.88
2022-09-30T06:21:34.616Z,80.75
2022-09-30T06:24:01.340Z,47.15
2022-09-30T06:26:27.893Z,90.15
2022-09-30T06:28:54.823Z,108.88
2022-09-30T06:31:21.576Z,225.15
2022-09-30T06:33:48.228Z,270.27
2022-09-30T06:36:15.212Z,198.98
2022-09-30T06:38:41.791Z,96.13
2022-09-30T06:41:08.870Z,159.50
2022-09-30T06:43:51.258Z,92.72
2022-09-30T06:46:26.323Z,104.15
2022-09-30T06:49:10.203Z,79.57
2022-09-30T06:51:39.838Z,295.90
2022-09-30T06:54:06.377Z,305.85
2022-09-30T06:56:32.872Z,143.48
2022-09-30T06:58:59.366Z,140.55
2022-09-30T07:01:27.934Z,117.82
2022-09-30T07:03:58.180Z,254.18
2022-09-30T07:06:28.759Z,85.13
2022-09-30T07:08:56.901Z,114.70
2022-09-30T07:11:24.799Z,126.65
2022-09-30T07:13:51.377Z,139.95
2022-09-30T07:16:19.779Z,409.63
2022-09-30T07:18:46.599Z,151.02
2022-09-30T07:21:16.073Z,135.60
2022-09-30T07:23:47.567Z,172.90
2022-09-30T07:26:19.441Z,104.78
2022-09-30T07:28:46.061Z,111.03
2022-09-30T07:31:34.699Z,249.35
2022-09-30T07:34:04.174Z,243.65
2022-09-30T07:36:33.621Z,232.15
2022-09-30T07:39:06.108Z,266.13
2022-09-30T07:41:36.525Z,158.68
2022-09-30T07:44:06.375Z,210.57
2022-09-30T07:46:36.275Z,192.57
2022-09-30T07:49:08.916Z,173.73
2022-09-30T07:51:40.664Z,248.82
2022-09-30T07:54:14.264Z,78.85
2022-09-30T07:57:08.153Z,210.65
2022-09-30T07:59:29.868Z,78.53
2022-09-30T08:01:56.784Z,191.90
2022-09-30T08:04:25.434Z,172.40
2022-09-30T08:06:55.913Z,106.78
2022-09-30T08:09:24.501Z,108.80
2022-09-30T08:11:51.261Z,58.58
2022-09-30T08:14:21.907Z,93.88
2022-09-30T08:16:49.170Z,440.83
2022-09-30T08:19:21.154Z,214.10
2022-09-30T08:21:48.338Z,101.25
2022-09-30T08:24:15.341Z,97.55
2022-09-30T08:26:42.752Z,83.93
2022-09-30T08:29:14.115Z,185.70
2022-09-30T08:31:43.678Z,219.63
2022-09-30T08:34:11.593Z,103.25
2022-09-30T08:36:38.271Z,115.63
2022-09-30T08:39:05.989Z,101.10
2022-09-30T08:42:08.750Z,67.30
2022-09-30T08:44:49.072Z,77.47
2022-09-30T08:47:41.942Z,111.38
2022-09-30T08:50:23.742Z,100.47
2022-09-30T08:52:54.596Z,149.95
2022-09-30T08:55:24.860Z,168.75
2022-09-30T08:57:53.624Z,108.75
2022-09-30T09:00:21.094Z,147.73
2022-09-30T09:02:58.843Z,100.80
2022-09-30T09:05:49.992Z,80.13
2022-09-30T09:08:34.881Z,73.80
2022-09-30T09:11:21.132Z,49.35
2022-09-30T09:13:57.682Z,70.10
2022-09-30T09:16:50.565Z,43.08
2022-09-30T09:19:25.095Z,52.40
2022-09-30T09:21:57.183Z,44.30
2022-09-30T09:24:30.313Z,43.55
2022-09-30T09:26:59.038Z,40.47
2022-09-30T09:29:40.815Z,51.75
2022-09-30T09:32:17.478Z,34.38
2022-09-30T09:34:46.192Z,73.28
2022-09-30T09:37:12.651Z,34.38
2022-09-30T09:39:54.483Z,50.47
2022-09-30T09:42:47.536Z,60.80
2022-09-30T09:45:26.276Z,48.58
2022-09-30T09:47:57.992Z,61.70
2022-09-30T09:50:56.995Z,28.67
2022-09-30T09:53:48.025Z,44.55
2022-09-30T09:56:22.351Z,32.60
2022-09-30T09:59:24.738Z,30.50
2022-09-30T10:04:23.670Z,37.83
2022-09-30T10:07:12.549Z,35.75
2022-09-30T10:09:41.386Z,28.92
2022-09-30T10:12:07.884Z,22.80
2022-09-30T10:14:45.941Z,24.63
2022-09-30T10:17:21.042Z,29.23
2022-09-30T10:19:51.905Z,23.83
2022-09-30T10:22:27.670Z,27.13
2022-09-30T10:25:10.972Z,19.83
2022-09-30T10:27:37.573Z,19.50
2022-09-30T10:30:04.540Z,22.48
2022-09-30T10:32:32.611Z,29.38
2022-09-30T10:35:22.707Z,32.63
2022-09-30T10:37:58.035Z,26.38
2022-09-30T10:40:28.471Z,25.23
2022-09-30T10:42:56.105Z,22.73
2022-09-30T10:46:01.496Z,24.45
2022-09-30T10:48:38.028Z,24.98
2022-09-30T10:51:07.123Z,25.33
2022-09-30T10:53:35.321Z,28.63
2022-09-30T10:56:05.293Z,31.30
2022-09-30T10:58:51.643Z,29.13
2022-09-30T11:01:30.589Z,29.65
2022-09-30T11:04:31.162Z,31.05
2022-09-30T11:07:26.698Z,31.95
2022-09-30T11:10:23.087Z,30.33
2022-09-30T11:12:49.945Z,28.67
2022-09-30T11:15:24.414Z,32.40
2022-09-30T11:17:54.967Z,32.95
2022-09-30T11:20:36.222Z,28.95
2022-09-30T11:23:24.642Z,27.38
2022-09-30T11:26:07.297Z,30.88
2022-09-30T11:29:05.181Z,28.83
2022-09-30T11:31:49.206Z,32.03
2022-09-30T11:34:27.788Z,33.45
2022-09-30T11:37:25.340Z,31.27
2022-09-30T11:40:13.801Z,31.60
2022-09-30T11:42:59.715Z,37.38
2022-09-30T11:45:46.036Z,38.40
2022-09-30T11:48:21.769Z,39.17
2022-09-30T11:51:11.135Z,30.05
2022-09-30T11:53:45.447Z,36.70
2022-09-30T11:56:46.248Z,39.83
2022-09-30T11:59:24.688Z,33.88
2022-09-30T12:01:56.861Z,39.92
2022-09-30T12:04:38.083Z,31.85
2022-09-30T12:07:14.886Z,28.67
2022-09-30T12:09:47.137Z,28.17
2022-09-30T12:12:17.045Z,18.35
2022-09-30T12:15:15.515Z,23.23
2022-09-30T12:17:48.513Z,21.55
2022-09-30T12:20:18.706Z,17.17
2022-09-30T12:22:47.687Z,20.38
2022-09-30T12:25:22.966Z,5.75
2022-09-30T12:28:23.781Z,6.03
2022-09-30T12:31:02.244Z,5.45
2022-09-30T12:33:59.133Z,3.53
2022-09-30T12:37:13.824Z,3.70
2022-09-30T12:39:55.261Z,3.53
2022-09-30T12:42:40.047Z,4.40
2022-09-30T12:45:18.546Z,5.90
2022-09-30T12:47:48.476Z,7.00
2022-09-30T12:50:19.406Z,2.47
2022-09-30T12:52:46.501Z,5.15
2022-09-30T12:55:25.423Z,6.97
2022-09-30T12:57:53.281Z,2.75
2022-09-30T13:00:23.174Z,4.38
2022-09-30T13:02:56.682Z,2.97
2022-09-30T13:05:32.535Z,3.97
2022-09-30T13:08:11.355Z,4.68
2022-09-30T13:10:37.814Z,4.35
2022-09-30T13:13:10.468Z,2.70
2022-09-30T13:15:37.057Z,3.20
2022-09-30T13:18:28.078Z,4.18
2022-09-30T13:21:08.438Z,2.92
2022-09-30T13:23:40.999Z,2.63
2022-09-30T13:26:27.993Z,2.47
2022-09-30T13:29:14.651Z,3.30
2022-09-30T13:31:50.490Z,2.97
2022-09-30T13:34:31.214Z,2.50
2022-09-30T13:37:02.199Z,2.70
2022-09-30T13:39:47.800Z,2.47
2022-09-30T13:42:14.334Z,2.67
2022-09-30T13:44:57.633Z,3.20
2022-09-30T13:47:30.390Z,3.50
2022-09-30T13:50:06.297Z,4.35
2022-09-30T13:52:35.494Z,3.20
2022-09-30T13:55:25.843Z,2.20
2022-09-30T13:58:28.197Z,2.50
2022-09-30T14:04:23.305Z,2.42
2022-09-30T14:06:55.713Z,3.10
2022-09-30T14:09:34.527Z,2.05
2022-09-30T14:12:04.213Z,4.00
2022-09-30T14:14:55.449Z,2.67
2022-09-30T14:17:50.141Z,4.32
2022-09-30T14:20:54.344Z,1.58
2022-09-30T14:23:21.622Z,5.25
2022-09-30T14:26:10.937Z,2.80
2022-09-30T14:29:03.866Z,1.65
2022-09-30T14:31:33.999Z,1.73
2022-09-30T14:34:00.723Z,3.17
2022-09-30T14:36:27.455Z,2.83
2022-09-30T14:38:59.564Z,2.03
2022-09-30T14:41:28.283Z,3.97
2022-09-30T14:43:59.356Z,2.40
2022-09-30T14:46:38.903Z,2.72
2022-09-30T14:49:09.542Z,2.30
2022-09-30T14:51:43.390Z,2.08
2022-09-30T14:54:26.619Z,2.35
2022-09-30T14:56:56.034Z,1.52
2022-09-30T14:59:28.059Z,3.03
2022-09-30T15:02:00.771Z,3.65
2022-09-30T15:04:39.923Z,4.63
2022-09-30T15:07:11.375Z,4.35
2022-09-30T15:09:46.509Z,3.95
2022-09-30T15:12:14.280Z,4.80
2022-09-30T15:14:49.987Z,2.33
2022-09-30T15:17:21.993Z,2.95
2022-09-30T15:19:50.402Z,2.47
2022-09-30T15:22:18.988Z,4.43
2022-09-30T15:24:47.505Z,3.65
2022-09-30T15:27:35.414Z,2.92
2022-09-30T15:30:22.474Z,2.83
2022-09-30T15:32:56.738Z,3.55
2022-09-30T15:35:24.040Z,3.63
2022-09-30T15:37:52.313Z,2.22
2022-09-30T15:40:43.065Z,2.30
2022-09-30T15:43:15.559Z,3.00
2022-09-30T15:45:50.504Z,3.53
2022-09-30T15:48:46.111Z,2.78
2022-09-30T15:51:37.427Z,2.30
2022-09-30T15:54:32.048Z,6.38
2022-09-30T15:57:00.919Z,6.93
2022-09-30T15:59:58.461Z,5.78
2022-09-30T16:02:25.391Z,5.93
2022-09-30T16:04:53.171Z,3.65
2022-09-30T16:07:26.407Z,2.20
2022-09-30T16:09:53.218Z,3.42
2022-09-30T16:12:24.455Z,5.97
2022-09-30T16:14:52.810Z,3.63
2022-09-30T16:17:24.557Z,3.83
2022-09-30T16:19:58.001Z,2.97
2022-09-30T16:22:59.302Z,3.58
2022-09-30T16:25:30.659Z,2.88
2022-09-30T16:28:14.346Z,5.40
2022-09-30T16:30:47.597Z,8.95
2022-09-30T16:33:15.761Z,6.07
2022-09-30T16:35:44.358Z,5.05
2022-09-30T16:38:13.918Z,5.03
2022-09-30T16:40:40.848Z,4.40
2022-09-30T16:43:11.752Z,7.70
2022-09-30T16:45:40.385Z,6.38
2022-09-30T16:48:15.346Z,3.33
2022-09-30T16:50:45.689Z,2.97
2022-09-30T16:53:12.267Z,6.22
2022-09-30T16:55:38.767Z,4.13
2022-09-30T16:58:05.462Z,4.40
2022-09-30T17:00:32.495Z,6.20
2022-09-30T17:02:59.223Z,4.55
2022-09-30T17:05:26.872Z,4.00
2022-09-30T17:07:59.343Z,4.70
2022-09-30T17:10:31.038Z,5.22
2022-09-30T17:13:02.414Z,2.92
2022-09-30T17:15:31.495Z,5.43
2022-09-30T17:17:59.011Z,7.82
2022-09-30T17:20:26.646Z,3.63
2022-09-30T17:22:53.298Z,5.05
2022-09-30T17:25:19.973Z,3.78
2022-09-30T17:27:52.804Z,2.85
2022-09-30T17:30:20.030Z,9.55
2022-09-30T17:32:46.930Z,8.57
2022-09-30T17:35:13.768Z,4.63
2022-09-30T17:37:43.832Z,3.72
2022-09-30T17:40:31.163Z,3.25
2022-09-30T17:43:12.968Z,2.15
2022-09-30T17:45:46.121Z,2.88
2022-09-30T17:48:14.535Z,2.47
2022-09-30T17:50:44.275Z,5.28
2022-09-30T17:53:14.367Z,5.03
2022-09-30T17:55:41.688Z,1.63
2022-09-30T17:58:09.334Z,10.45
2022-09-30T18:00:36.517Z,7.32
2022-09-30T18:03:03.967Z,3.25
2022-09-30T18:05:33.060Z,6.57
2022-09-30T18:07:59.937Z,3.03
2022-09-30T18:10:27.670Z,5.75
2022-09-30T18:12:55.200Z,10.98
2022-09-30T18:15:23.329Z,3.42
2022-09-30T18:17:50.237Z,3.28
2022-09-30T18:20:17.860Z,7.30
2022-09-30T18:22:46.222Z,4.53
2022-09-30T18:25:22.736Z,4.05
2022-09-30T18:27:56.462Z,4.15
2022-09-30T18:30:24.215Z,8.65
2022-09-30T18:32:52.785Z,3.92
2022-09-30T18:35:21.919Z,4.28
2022-09-30T18:37:52.283Z,4.72
2022-09-30T18:40:25.861Z,2.40
2022-09-30T18:42:58.368Z,1.95
2022-09-30T18:45:35.777Z,1.60
2022-09-30T18:48:02.534Z,4.40
2022-09-30T18:50:30.407Z,1.65
2022-09-30T18:52:57.945Z,3.42
2022-09-30T18:55:25.170Z,5.65
2022-09-30T18:57:56.142Z,3.88
2022-09-30T19:00:22.925Z,5.35
2022-09-30T19:02:52.095Z,8.65
2022-09-30T19:05:18.891Z,3.63
2022-09-30T19:07:45.398Z,4.45
2022-09-30T19:10:13.293Z,4.85
2022-09-30T19:12:40.634Z,4.32
2022-09-30T19:15:12.084Z,3.72
2022-09-30T19:17:38.670Z,3.92
2022-09-30T19:20:06.687Z,5.00
2022-09-30T19:22:37.273Z,4.18
2022-09-30T19:25:11.754Z,3.05
2022-09-30T19:27:40.933Z,6.03
2022-09-30T19:30:10.271Z,6.28
2022-09-30T19:32:37.138Z,3.17
2022-09-30T19:35:06.798Z,3.47
2022-09-30T19:37:34.603Z,4.95
2022-09-30T19:40:10.743Z,2.17
2022-09-30T19:42:43.028Z,4.43
2022-09-30T19:45:09.569Z,3.58
2022-09-30T19:47:38.009Z,5.63
2022-09-30T19:50:05.615Z,5.18
2022-09-30T19:52:34.423Z,5.30
2022-09-30T19:55:13.034Z,3.22
2022-09-30T19:57:42.694Z,3.80
2022-09-30T20:00:12.654Z,4.80
2022-09-30T20:02:39.306Z,5.45
2022-09-30T20:05:06.516Z,6.65
2022-09-30T20:07:33.076Z,3.55
2022-09-30T20:10:01.008Z,5.00
2022-09-30T20:12:28.966Z,2.40
2022-09-30T20:15:14.371Z,3.92
2022-09-30T20:17:40.892Z,4.45
2022-09-30T20:20:26.382Z,4.53
2022-09-30T20:22:53.320Z,6.15
2022-09-30T20:25:20.367Z,11.77
2022-09-30T20:27:51.876Z,3.13
2022-09-30T20:30:18.878Z,4.05
2022-09-30T20:32:45.398Z,4.57
2022-09-30T20:35:12.041Z,6.82
2022-09-30T20:37:40.875Z,4.85
2022-09-30T20:40:09.454Z,3.60
2022-09-30T20:42:38.473Z,2.63
2022-09-30T20:45:10.164Z,10.65
2022-09-30T20:47:37.794Z,4.90
2022-09-30T20:50:06.081Z,3.10
2022-09-30T20:52:32.627Z,2.92
2022-09-30T20:55:00.447Z,5.13
2022-09-30T20:57:31.711Z,3.72
2022-09-30T20:59:59.971Z,2.75
2022-09-30T21:02:27.992Z,3.50
2022-09-30T21:04:57.772Z,4.45
2022-09-30T21:07:25.338Z,4.43
2022-09-30T21:09:52.564Z,4.88
2022-09-30T21:12:19.370Z,5.80
2022-09-30T21:14:45.932Z,4.30
2022-09-30T21:17:12.510Z,7.30
2022-09-30T21:19:39.218Z,5.97
2022-09-30T21:22:05.748Z,5.45
2022-09-30T21:24:32.278Z,5.20
2022-09-30T21:26:59.064Z,5.75
2022-09-30T21:29:25.640Z,9.27
2022-09-30T21:31:52.189Z,7.53
2022-09-30T21:34:18.896Z,6.15
2022-09-30T21:36:46.358Z,5.25
2022-09-30T21:39:12.933Z,5.55
2022-09-30T21:41:40.840Z,3.42
2022-09-30T21:44:07.553Z,4.95
2022-09-30T21:46:35.690Z,3.45
2022-09-30T21:49:19.970Z,3.92
2022-09-30T21:51:47.058Z,5.30
2022-09-30T21:54:14.581Z,3.50
2022-09-30T21:56:42.912Z,2.97
2022-09-30T21:59:10.440Z,5.90
2022-09-30T22:01:37.513Z,7.20
2022-09-30T22:04:04.866Z,3.10
2022-09-30T22:06:31.602Z,3.85
2022-09-30T22:09:01.238Z,4.45
2022-09-30T22:11:29.195Z,2.55
2022-09-30T22:13:57.694Z,6.65
2022-09-30T22:16:27.355Z,3.67
2022-09-30T22:18:55.215Z,4.40
2022-09-30T22:21:22.063Z,2.92
2022-09-30T22:23:49.553Z,4.57
2022-09-30T22:26:19.167Z,5.78
2022-09-30T22:28:46.850Z,3.95
2022-09-30T22:31:21.505Z,4.35
2022-09-30T22:34:09.610Z,5.75
2022-09-30T22:36:54.983Z,3.10
2022-09-30T22:39:22.347Z,9.80
2022-09-30T22:41:50.303Z,3.13
2022-09-30T22:44:17.862Z,2.50
2022-09-30T22:46:44.892Z,5.10
2022-09-30T22:49:11.826Z,3.47
2022-09-30T22:51:38.966Z,3.20
2022-09-30T22:54:05.989Z,5.47
2022-09-30T22:56:32.550Z,5.07
2022-09-30T22:58:59.603Z,3.45
2022-09-30T23:01:29.261Z,6.05
2022-09-30T23:03:56.066Z,4.80
2022-09-30T23:06:24.372Z,3.40
2022-09-30T23:08:52.662Z,4.10
2022-09-30T23:11:19.411Z,5.80
2022-09-30T23:13:46.458Z,7.30
2022-09-30T23:16:14.196Z,2.63
2022-09-30T23:18:41.019Z,2.55
2022-09-30T23:21:10.657Z,3.03
2022-09-30T23:23:38.803Z,5.25
2022-09-30T23:26:06.812Z,4.10
2022-09-30T23:28:33.399Z,3.20
2022-09-30T23:31:09.372Z,3.45
2022-09-30T23:33:37.812Z,1.90
2022-09-30T23:36:06.356Z,2.75
2022-09-30T23:38:33.338Z,3.20
2022-09-30T23:41:00.268Z,2.47
2022-09-30T23:43:31.251Z,3.53
2022-09-30T23:46:01.747Z,3.78
2022-09-30T23:48:28.700Z,2.90
2022-09-30T23:50:55.338Z,3.42
2022-09-30T23:53:23.228Z,3.05
2022-09-30T23:56:13.038Z,2.97
2022-09-30T23:58:40.233Z,5.70
